METAR Data
IDs: Format: Raw Decoded Include TAF

Data at: 0942 UTC 28 Sep 2021

ESGT 280920Z 22004KT 9999 FEW012 OVC092 14/11 Q1020